< < Back
Terminal Aerodrome Forecast


Current Version              Previous Versions:   1  2  3  4  5  6  7  8  9  

Terminal Aerodrome Forecast

264
FTUS42 KGSP 271731
TAFCLT
TAF
KCLT 271731Z 2718/2818 32008KT P6SM SCT060 BKN250
     FM280000 36004KT P6SM FEW060 BKN250
     FM281200 01008KT P6SM FEW060 BKN250=

Latest METAR

631
SAUS70 KWBC 280500 RRH
MTRCLT
METAR KCLT 280452Z 05004KT 10SM FEW080 SCT250 12/M01 A2994 RMK AO2
SLP134 T01171006 402170039


USA.gov is the U.S. government's official web portal to all federal, state and local government web resources and services.